createdAt,value
2019-06-20T00:01:25.810Z,20.97
2019-06-20T00:03:56.800Z,20.89
2019-06-20T00:06:26.483Z,20.86
2019-06-20T00:09:08.430Z,20.82
2019-06-20T00:11:37.802Z,20.79
2019-06-20T00:14:07.204Z,20.81
2019-06-20T00:16:36.627Z,20.84
2019-06-20T00:19:05.982Z,20.84
2019-06-20T00:21:35.523Z,20.82
2019-06-20T00:24:04.895Z,20.72
2019-06-20T00:26:34.526Z,20.59
2019-06-20T00:29:04.203Z,20.49
2019-06-20T00:31:33.762Z,20.49
2019-06-20T00:34:03.117Z,20.46
2019-06-20T00:36:32.653Z,20.40
2019-06-20T00:42:05.863Z,20.35
2019-06-20T00:44:35.572Z,20.43
2019-06-20T00:47:04.936Z,20.39
2019-06-20T00:49:34.312Z,20.36
2019-06-20T00:52:03.977Z,20.33
2019-06-20T00:54:33.706Z,20.29
2019-06-20T00:57:03.074Z,20.19
2019-06-20T00:59:32.624Z,20.04
2019-06-20T01:02:02.340Z,19.97
2019-06-20T01:04:31.814Z,19.89
2019-06-20T01:07:01.172Z,19.86
2019-06-20T01:09:43.218Z,19.78
2019-06-20T01:12:12.665Z,19.73
2019-06-20T01:14:42.037Z,19.65
2019-06-20T01:17:11.630Z,19.65
2019-06-20T01:19:40.994Z,19.64
2019-06-20T01:22:10.683Z,19.57
2019-06-20T01:24:40.075Z,19.53
2019-06-20T01:27:09.696Z,19.45
2019-06-20T01:29:39.075Z,19.37
2019-06-20T01:32:08.995Z,19.28
2019-06-20T01:34:38.378Z,19.28
2019-06-20T01:37:08.097Z,19.28
2019-06-20T01:39:37.812Z,19.28
2019-06-20T01:42:07.170Z,19.28
2019-06-20T01:44:38.158Z,19.23
2019-06-20T01:47:09.136Z,19.20
2019-06-20T01:49:38.869Z,19.15
2019-06-20T01:52:08.234Z,19.14
2019-06-20T01:54:37.809Z,19.14
2019-06-20T01:57:07.177Z,19.12
2019-06-20T01:59:36.827Z,19.10
2019-06-20T02:02:06.552Z,19.09
2019-06-20T02:04:36.006Z,19.06
2019-06-20T02:07:05.735Z,19.03
2019-06-20T02:09:35.115Z,18.97
2019-06-20T02:18:19.641Z,18.99
2019-06-20T02:24:35.835Z,19.18
2019-06-20T02:27:05.173Z,19.15
2019-06-20T02:29:34.815Z,19.14
2019-06-20T02:32:04.481Z,19.15
2019-06-20T02:34:33.970Z,19.14
2019-06-20T02:37:03.374Z,19.10
2019-06-20T02:39:32.905Z,19.00
2019-06-20T02:42:02.358Z,18.91
2019-06-20T02:44:31.889Z,18.82
2019-06-20T02:47:01.244Z,18.72
2019-06-20T02:49:30.992Z,18.63
2019-06-20T02:52:00.376Z,18.59
2019-06-20T02:57:31.964Z,18.55
2019-06-20T03:00:01.388Z,18.64
2019-06-20T03:02:32.507Z,18.68
2019-06-20T03:05:13.683Z,18.73
2019-06-20T03:07:43.076Z,18.80
2019-06-20T03:10:24.924Z,18.85
2019-06-20T03:12:54.424Z,18.96
2019-06-20T03:15:23.975Z,19.00
2019-06-20T03:17:53.394Z,18.97
2019-06-20T03:20:22.955Z,18.90
2019-06-20T03:22:53.361Z,18.87
2019-06-20T03:25:23.081Z,18.89
2019-06-20T03:27:53.423Z,18.84
2019-06-20T03:30:22.988Z,18.77
2019-06-20T03:32:53.449Z,18.72
2019-06-20T03:35:23.046Z,18.71
2019-06-20T03:37:53.331Z,18.71
2019-06-20T03:40:23.167Z,18.69
2019-06-20T03:42:53.452Z,18.70
2019-06-20T03:45:23.082Z,18.72
2019-06-20T03:47:53.428Z,18.68
2019-06-20T03:50:23.035Z,18.70
2019-06-20T03:53:12.445Z,18.71
2019-06-20T03:55:42.112Z,18.70
2019-06-20T03:58:11.499Z,18.75
2019-06-20T04:00:41.060Z,18.78
2019-06-20T04:03:10.487Z,18.77
2019-06-20T04:05:40.030Z,18.77
2019-06-20T04:08:09.398Z,18.80
2019-06-20T04:10:39.080Z,18.78
2019-06-20T04:13:08.497Z,18.80
2019-06-20T04:15:38.105Z,18.82
2019-06-20T04:18:07.540Z,18.85
2019-06-20T04:20:37.062Z,18.89
2019-06-20T04:23:06.773Z,18.92
2019-06-20T04:25:36.234Z,19.02
2019-06-20T04:28:05.621Z,19.01
2019-06-20T04:30:35.112Z,19.04
2019-06-20T04:33:04.574Z,19.03
2019-06-20T04:35:34.133Z,19.04
2019-06-20T04:38:03.534Z,19.06
2019-06-20T04:40:33.270Z,19.09
2019-06-20T04:43:02.707Z,19.08
2019-06-20T04:48:28.061Z,18.99
2019-06-20T04:50:59.447Z,19.01
2019-06-20T04:53:29.191Z,19.01
2019-06-20T04:55:58.880Z,19.04
2019-06-20T04:58:28.357Z,19.06
2019-06-20T05:00:57.740Z,19.11
2019-06-20T05:03:27.470Z,19.21
2019-06-20T05:05:56.950Z,19.31
2019-06-20T05:08:38.426Z,19.38
2019-06-20T05:13:48.749Z,19.41
2019-06-20T05:16:18.423Z,19.44
2019-06-20T05:18:47.945Z,19.46
2019-06-20T05:23:58.492Z,19.60
2019-06-20T05:26:27.906Z,19.66
2019-06-20T05:28:57.719Z,19.71
2019-06-20T05:31:27.131Z,19.71
2019-06-20T05:33:56.808Z,19.75
2019-06-20T05:36:26.509Z,19.78
2019-06-20T05:38:55.883Z,19.76
2019-06-20T05:41:25.551Z,19.76
2019-06-20T05:43:55.227Z,19.80
2019-06-20T05:46:36.523Z,19.83
2019-06-20T05:49:06.007Z,19.91
2019-06-20T05:51:35.518Z,19.97
2019-06-20T05:54:05.008Z,19.95
2019-06-20T05:56:34.476Z,19.85
2019-06-20T05:59:03.960Z,19.81
2019-06-20T06:01:33.614Z,19.83
2019-06-20T06:04:16.168Z,19.81
2019-06-20T06:06:45.576Z,19.82
2019-06-20T06:09:14.977Z,19.82
2019-06-20T06:12:04.235Z,19.84
2019-06-20T06:14:33.656Z,19.83
2019-06-20T06:17:03.618Z,19.79
2019-06-20T06:19:39.723Z,19.81
2019-06-20T06:22:09.118Z,19.84
2019-06-20T06:24:38.548Z,19.87
2019-06-20T06:27:08.299Z,19.90
2019-06-20T06:29:37.710Z,19.89
2019-06-20T06:32:07.080Z,19.92
2019-06-20T06:34:36.473Z,19.94
2019-06-20T06:37:05.840Z,19.96
2019-06-20T06:39:35.567Z,20.01
2019-06-20T06:42:05.137Z,20.08
2019-06-20T06:44:34.684Z,20.11
2019-06-20T06:47:04.094Z,20.12
2019-06-20T06:49:33.781Z,20.09
2019-06-20T06:52:03.229Z,20.17
2019-06-20T06:54:32.689Z,20.26
2019-06-20T06:57:02.081Z,20.25
2019-06-20T06:59:31.745Z,20.30
2019-06-20T07:02:01.458Z,20.40
2019-06-20T07:04:30.975Z,20.43
2019-06-20T07:07:00.666Z,20.43
2019-06-20T07:09:30.105Z,20.53
2019-06-20T07:11:59.949Z,20.72
2019-06-20T07:14:29.655Z,20.85
2019-06-20T07:17:00.628Z,20.99
2019-06-20T07:19:39.730Z,21.11
2019-06-20T07:22:09.147Z,21.26
2019-06-20T07:24:38.733Z,21.32
2019-06-20T07:27:08.112Z,21.36
2019-06-20T07:29:37.668Z,21.29
2019-06-20T07:32:07.071Z,21.15
2019-06-20T07:34:36.736Z,21.07
2019-06-20T07:37:06.157Z,21.05
2019-06-20T07:39:35.821Z,21.14
2019-06-20T07:42:05.846Z,21.28
2019-06-20T07:44:35.227Z,21.29
2019-06-20T07:47:17.163Z,21.23
2019-06-20T07:49:41.808Z,21.37
2019-06-20T07:52:11.209Z,21.71
2019-06-20T07:54:40.830Z,21.86
2019-06-20T07:57:12.102Z,21.88
2019-06-20T07:59:41.466Z,21.87
2019-06-20T08:02:12.541Z,21.91
2019-06-20T08:04:41.911Z,21.94
2019-06-20T08:07:11.337Z,21.99
2019-06-20T08:09:45.217Z,22.13
2019-06-20T08:12:17.279Z,22.25
2019-06-20T08:14:46.934Z,22.27
2019-06-20T08:17:16.366Z,22.18
2019-06-20T08:19:45.903Z,22.11
2019-06-20T08:22:15.354Z,22.07
2019-06-20T08:24:44.800Z,22.08
2019-06-20T08:27:28.031Z,22.09
2019-06-20T08:29:59.053Z,22.19
2019-06-20T08:32:38.064Z,22.44
2019-06-20T08:35:07.767Z,22.47
2019-06-20T08:37:37.188Z,22.57
2019-06-20T08:40:26.586Z,22.53
2019-06-20T08:42:57.191Z,22.41
2019-06-20T08:45:46.539Z,22.35
2019-06-20T08:48:15.930Z,22.46
2019-06-20T08:50:45.398Z,22.53
2019-06-20T08:53:14.976Z,22.55
2019-06-20T08:55:44.463Z,22.54
2019-06-20T08:58:14.036Z,22.49
2019-06-20T09:00:43.575Z,22.48
2019-06-20T09:03:13.020Z,22.55
2019-06-20T09:05:42.390Z,22.82
2019-06-20T09:08:12.230Z,23.15
2019-06-20T09:11:01.765Z,23.47
2019-06-20T09:13:40.609Z,23.77
2019-06-20T09:16:24.326Z,23.93
2019-06-20T09:18:56.712Z,23.95
2019-06-20T09:21:35.412Z,24.02
2019-06-20T09:24:17.486Z,24.14
2019-06-20T09:26:59.511Z,24.14
2019-06-20T09:29:41.372Z,24.06
2019-06-20T09:35:29.146Z,23.78
2019-06-20T09:37:59.376Z,23.78
2019-06-20T09:40:35.938Z,23.69
2019-06-20T09:43:05.736Z,23.60
2019-06-20T09:48:58.720Z,23.62
2019-06-20T09:51:35.166Z,23.73
2019-06-20T09:57:39.408Z,23.92
2019-06-20T10:00:28.508Z,24.17
2019-06-20T10:03:17.668Z,25.13
2019-06-20T10:05:47.616Z,25.13
2019-06-20T10:08:27.287Z,25.48
2019-06-20T10:10:56.632Z,25.80
2019-06-20T10:13:26.063Z,25.77
2019-06-20T10:15:55.741Z,25.96
2019-06-20T10:18:35.582Z,26.27
2019-06-20T10:21:05.338Z,26.57
2019-06-20T10:23:34.729Z,26.67
2019-06-20T10:26:04.251Z,26.65
2019-06-20T10:28:33.606Z,26.48
2019-06-20T10:31:03.337Z,26.21
2019-06-20T10:33:33.079Z,25.93
2019-06-20T10:36:02.951Z,25.90
2019-06-20T10:38:32.386Z,25.83
2019-06-20T10:41:02.380Z,25.71
2019-06-20T10:43:32.073Z,25.77
2019-06-20T10:46:01.476Z,26.06
2019-06-20T10:48:32.476Z,26.49
2019-06-20T10:51:21.525Z,26.98
2019-06-20T10:56:31.459Z,27.36
2019-06-20T10:59:21.823Z,27.44
2019-06-20T11:01:51.208Z,27.39
2019-06-20T11:04:20.625Z,27.49
2019-06-20T11:06:51.596Z,27.50
2019-06-20T11:09:41.251Z,27.58
2019-06-20T11:12:11.636Z,27.91
2019-06-20T11:14:42.116Z,27.84
2019-06-20T11:17:11.473Z,27.66
2019-06-20T11:19:41.621Z,27.50
2019-06-20T11:22:11.135Z,27.37
2019-06-20T11:24:40.927Z,27.10
2019-06-20T11:27:10.400Z,26.75
2019-06-20T11:29:39.798Z,26.69
2019-06-20T11:35:56.455Z,26.50
2019-06-20T11:38:26.035Z,26.74
2019-06-20T11:40:55.562Z,26.66
2019-06-20T11:43:25.211Z,26.54
2019-06-20T11:45:54.639Z,26.48
2019-06-20T11:48:24.157Z,26.60
2019-06-20T11:50:54.546Z,26.90
2019-06-20T11:53:23.951Z,27.31
2019-06-20T11:55:54.700Z,27.69
2019-06-20T11:58:24.613Z,27.94
2019-06-20T12:01:03.652Z,28.14
2019-06-20T12:03:25.696Z,28.08
2019-06-20T12:05:55.383Z,28.21
2019-06-20T12:08:24.811Z,28.56
2019-06-20T12:10:54.674Z,28.76
2019-06-20T12:13:24.294Z,28.83
2019-06-20T12:15:54.602Z,28.15
2019-06-20T12:18:24.281Z,28.15
2019-06-20T12:20:54.574Z,28.07
2019-06-20T12:23:24.338Z,28.30
2019-06-20T12:25:54.699Z,28.49
2019-06-20T12:28:24.280Z,28.49
2019-06-20T12:31:00.288Z,28.76
2019-06-20T12:33:32.754Z,28.68
2019-06-20T12:36:02.514Z,28.54
2019-06-20T12:38:31.958Z,28.54
2019-06-20T12:41:02.087Z,28.67
2019-06-20T12:43:32.648Z,28.56
2019-06-20T12:46:02.312Z,28.22
2019-06-20T12:48:31.737Z,27.85
2019-06-20T12:51:01.409Z,27.51
2019-06-20T12:53:30.843Z,27.35
2019-06-20T12:56:00.532Z,27.19
2019-06-20T12:58:30.282Z,26.97
2019-06-20T13:00:59.646Z,26.70
2019-06-20T13:03:29.375Z,26.50
2019-06-20T13:05:58.755Z,26.31
2019-06-20T13:08:28.807Z,26.19
2019-06-20T13:10:58.479Z,26.04
2019-06-20T13:13:27.945Z,25.83
2019-06-20T13:15:57.750Z,25.60
2019-06-20T13:18:27.398Z,25.41
2019-06-20T13:20:56.769Z,25.33
2019-06-20T13:23:26.495Z,25.37
2019-06-20T13:25:55.897Z,25.62
2019-06-20T13:28:25.585Z,26.02
2019-06-20T13:30:54.994Z,26.41
2019-06-20T13:33:24.370Z,26.82
2019-06-20T13:35:54.809Z,27.04
2019-06-20T13:38:24.599Z,27.02
2019-06-20T13:40:54.991Z,26.93
2019-06-20T13:43:24.506Z,26.63
2019-06-20T13:45:54.881Z,26.57
2019-06-20T13:48:24.391Z,26.57
2019-06-20T13:50:54.799Z,26.55
2019-06-20T13:53:24.507Z,26.37
2019-06-20T13:55:54.911Z,26.17
2019-06-20T13:58:24.408Z,26.06
2019-06-20T14:00:54.996Z,26.03
2019-06-20T14:03:24.432Z,25.94
2019-06-20T14:05:54.817Z,25.91
2019-06-20T14:08:24.404Z,25.83
2019-06-20T14:10:54.891Z,26.01
2019-06-20T14:13:24.577Z,26.24
2019-06-20T14:15:54.843Z,26.54
2019-06-20T14:18:24.507Z,26.82
2019-06-20T14:20:55.254Z,27.08
2019-06-20T14:23:24.678Z,27.26
2019-06-20T14:25:56.097Z,27.14
2019-06-20T14:28:25.779Z,26.97
2019-06-20T14:30:55.458Z,26.83
2019-06-20T14:33:24.869Z,26.94
2019-06-20T14:35:54.922Z,27.13
2019-06-20T14:38:24.676Z,27.19
2019-06-20T14:40:54.962Z,27.35
2019-06-20T14:43:24.646Z,27.35
2019-06-20T14:45:56.476Z,27.18
2019-06-20T14:48:25.878Z,27.07
2019-06-20T14:50:55.538Z,27.17
2019-06-20T14:53:24.942Z,27.28
2019-06-20T14:55:55.012Z,27.13
2019-06-20T14:58:24.584Z,26.92
2019-06-20T15:00:55.308Z,26.67
2019-06-20T15:03:24.683Z,26.66
2019-06-20T15:05:55.103Z,26.58
2019-06-20T15:08:24.658Z,26.26
2019-06-20T15:10:55.060Z,26.20
2019-06-20T15:13:24.625Z,26.20
2019-06-20T15:15:55.607Z,26.32
2019-06-20T15:18:25.043Z,26.39
2019-06-20T15:20:57.827Z,26.37
2019-06-20T15:23:26.080Z,26.30
2019-06-20T15:25:56.165Z,26.42
2019-06-20T15:28:26.642Z,26.68
2019-06-20T15:30:57.286Z,26.73
2019-06-20T15:33:26.814Z,26.63
2019-06-20T15:35:58.082Z,26.49
2019-06-20T15:38:27.869Z,26.35
2019-06-20T15:40:57.644Z,26.23
2019-06-20T15:43:27.244Z,26.25
2019-06-20T15:45:58.377Z,26.18
2019-06-20T15:48:27.751Z,25.99
2019-06-20T15:50:57.207Z,25.85
2019-06-20T15:53:26.815Z,25.72
2019-06-20T15:55:56.215Z,25.65
2019-06-20T15:58:25.710Z,25.63
2019-06-20T16:00:55.165Z,25.72
2019-06-20T16:03:25.621Z,25.83
2019-06-20T16:05:55.075Z,25.87
2019-06-20T16:08:24.782Z,25.90
2019-06-20T16:10:55.123Z,26.06
2019-06-20T16:13:24.767Z,26.28
2019-06-20T16:15:55.052Z,26.23
2019-06-20T16:18:24.764Z,26.17
2019-06-20T16:20:55.065Z,26.13
2019-06-20T16:23:24.819Z,26.11
2019-06-20T16:25:55.250Z,26.11
2019-06-20T16:28:24.838Z,26.16
2019-06-20T16:31:07.971Z,26.19
2019-06-20T16:33:26.240Z,26.12
2019-06-20T16:35:55.905Z,25.94
2019-06-20T16:38:25.334Z,25.87
2019-06-20T16:40:55.777Z,25.85
2019-06-20T16:43:25.176Z,25.83
2019-06-20T16:45:55.147Z,25.86
2019-06-20T16:48:24.793Z,25.92
2019-06-20T16:50:55.108Z,25.88
2019-06-20T16:53:24.794Z,25.86
2019-06-20T16:55:55.274Z,25.77
2019-06-20T16:58:24.880Z,25.74
2019-06-20T17:00:55.158Z,25.59
2019-06-20T17:03:40.519Z,25.43
2019-06-20T17:05:56.229Z,25.12
2019-06-20T17:08:25.911Z,25.12
2019-06-20T17:10:55.349Z,25.10
2019-06-20T17:13:24.885Z,25.07
2019-06-20T17:15:55.230Z,24.93
2019-06-20T17:18:24.859Z,24.93
2019-06-20T17:20:55.190Z,24.79
2019-06-20T17:23:24.583Z,24.71
2019-06-20T17:25:55.255Z,24.53
2019-06-20T17:28:25.843Z,24.53
2019-06-20T17:30:55.275Z,24.43
2019-06-20T17:33:24.863Z,24.34
2019-06-20T17:35:55.192Z,24.12
2019-06-20T17:38:24.587Z,24.12
2019-06-20T17:40:55.291Z,24.04
2019-06-20T17:43:24.947Z,24.04
2019-06-20T17:45:55.239Z,23.98
2019-06-20T17:48:24.956Z,23.98
2019-06-20T17:50:55.281Z,23.95
2019-06-20T17:53:24.984Z,23.91
2019-06-20T17:55:55.318Z,23.79
2019-06-20T17:58:26.032Z,23.79
2019-06-20T18:00:55.470Z,23.70
2019-06-20T18:03:24.973Z,23.56
2019-06-20T18:05:55.298Z,23.42
2019-06-20T18:08:24.710Z,23.35
2019-06-20T18:10:55.411Z,23.18
2019-06-20T18:13:25.043Z,23.18
2019-06-20T18:15:55.375Z,23.18
2019-06-20T18:18:24.987Z,23.12
2019-06-20T18:20:55.451Z,23.09
2019-06-20T18:23:25.095Z,23.08
2019-06-20T18:25:55.440Z,23.04
2019-06-20T18:28:25.076Z,23.10
2019-06-20T18:30:55.399Z,23.11
2019-06-20T18:33:24.983Z,23.11
2019-06-20T18:35:55.360Z,23.08
2019-06-20T18:38:24.751Z,23.04
2019-06-20T18:40:54.440Z,23.03
2019-06-20T18:43:24.111Z,22.93
2019-06-20T18:45:53.541Z,22.88
2019-06-20T18:48:23.063Z,22.81
2019-06-20T18:50:52.522Z,22.55
2019-06-20T18:53:22.240Z,22.55
2019-06-20T18:55:52.590Z,22.56
2019-06-20T18:58:22.181Z,22.50
2019-06-20T19:00:51.591Z,22.51
2019-06-20T19:03:21.499Z,22.58
2019-06-20T19:05:52.898Z,22.61
2019-06-20T19:08:24.068Z,22.58
2019-06-20T19:10:53.425Z,22.52
2019-06-20T19:13:23.173Z,22.47
2019-06-20T19:15:52.545Z,22.46
2019-06-20T19:18:23.380Z,22.44
2019-06-20T19:20:52.692Z,22.37
2019-06-20T19:23:22.371Z,22.31
2019-06-20T19:25:52.044Z,22.26
2019-06-20T19:28:21.437Z,22.18
2019-06-20T19:30:51.920Z,22.09
2019-06-20T19:33:23.045Z,22.05
2019-06-20T19:35:52.510Z,21.95
2019-06-20T19:38:21.886Z,21.88
2019-06-20T19:40:51.364Z,21.86
2019-06-20T19:43:21.033Z,21.76
2019-06-20T19:45:50.441Z,21.66
2019-06-20T19:48:20.152Z,21.62
2019-06-20T19:50:49.550Z,21.58
2019-06-20T19:53:19.236Z,21.48
2019-06-20T19:55:48.702Z,21.50
2019-06-20T19:58:18.289Z,21.54
2019-06-20T20:00:47.714Z,21.50
2019-06-20T20:03:18.228Z,21.38
2019-06-20T20:05:47.700Z,21.28
2019-06-20T20:08:17.405Z,21.09
2019-06-20T20:10:48.337Z,20.90
2019-06-20T20:13:18.247Z,20.76
2019-06-20T20:15:47.736Z,20.71
2019-06-20T20:18:17.202Z,20.62
2019-06-20T20:20:47.956Z,20.51
2019-06-20T20:23:17.669Z,20.29
2019-06-20T20:25:48.356Z,20.13
2019-06-20T20:28:17.724Z,20.03
2019-06-20T20:30:47.342Z,19.93
2019-06-20T20:33:16.816Z,19.87
2019-06-20T20:35:46.453Z,19.78
2019-06-20T20:38:15.826Z,19.76
2019-06-20T20:40:45.502Z,19.78
2019-06-20T20:43:14.872Z,19.82
2019-06-20T20:45:44.597Z,19.82
2019-06-20T20:48:14.246Z,19.82
2019-06-20T20:50:43.921Z,19.78
2019-06-20T20:53:14.388Z,19.76
2019-06-20T20:55:43.782Z,19.72
2019-06-20T20:58:13.581Z,19.70
2019-06-20T21:00:47.518Z,19.66
2019-06-20T21:03:16.889Z,19.66
2019-06-20T21:05:51.333Z,19.66
2019-06-20T21:08:17.630Z,19.64
2019-06-20T21:10:47.339Z,19.61
2019-06-20T21:13:16.740Z,19.57
2019-06-20T21:15:47.395Z,19.50
2019-06-20T21:18:16.767Z,19.43
2019-06-20T21:20:46.533Z,19.44
2019-06-20T21:23:15.919Z,19.51
2019-06-20T21:25:45.439Z,19.52
2019-06-20T21:28:14.783Z,19.41
2019-06-20T21:30:44.398Z,19.29
2019-06-20T21:33:13.762Z,19.21
2019-06-20T21:35:44.137Z,19.27
2019-06-20T21:38:13.792Z,19.36
2019-06-20T21:40:43.509Z,19.39
2019-06-20T21:43:12.864Z,19.40
2019-06-20T21:45:42.909Z,19.33
2019-06-20T21:48:12.677Z,19.29
2019-06-20T21:50:42.155Z,19.30
2019-06-20T21:53:11.747Z,19.32
2019-06-20T21:55:41.511Z,19.33
2019-06-20T21:58:10.891Z,19.27
2019-06-20T22:00:44.218Z,19.27
2019-06-20T22:03:15.420Z,19.25
2019-06-20T22:05:44.902Z,19.23
2019-06-20T22:08:14.584Z,19.21
2019-06-20T22:10:44.136Z,19.14
2019-06-20T22:13:13.810Z,19.09
2019-06-20T22:15:43.520Z,19.03
2019-06-20T22:18:12.900Z,18.98
2019-06-20T22:20:42.662Z,18.97
2019-06-20T22:23:12.034Z,18.96
2019-06-20T22:25:41.592Z,18.96
2019-06-20T22:28:10.965Z,18.94
2019-06-20T22:30:52.474Z,18.91
2019-06-20T22:33:21.846Z,18.93
2019-06-20T22:35:51.436Z,18.93
2019-06-20T22:38:20.809Z,18.88
2019-06-20T22:40:50.793Z,18.85
2019-06-20T22:43:20.466Z,18.80
2019-06-20T22:45:49.883Z,18.80
2019-06-20T22:48:19.496Z,18.82
2019-06-20T22:50:49.120Z,18.82
2019-06-20T22:53:18.694Z,18.79
2019-06-20T22:55:48.101Z,18.72
2019-06-20T22:58:17.640Z,18.65
2019-06-20T23:00:47.041Z,18.60
2019-06-20T23:03:17.697Z,18.57
2019-06-20T23:05:47.946Z,18.56
2019-06-20T23:08:17.686Z,18.58
2019-06-20T23:10:47.262Z,18.59
2019-06-20T23:13:16.653Z,18.61
2019-06-20T23:15:46.125Z,18.65
2019-06-20T23:18:15.593Z,18.64
2019-06-20T23:21:03.593Z,18.64
2019-06-20T23:23:17.084Z,18.65
2019-06-20T23:25:48.349Z,18.64
2019-06-20T23:28:17.774Z,18.54
2019-06-20T23:30:47.232Z,18.51
2019-06-20T23:33:16.599Z,18.51
2019-06-20T23:35:46.057Z,18.50
2019-06-20T23:38:15.705Z,18.49
2019-06-20T23:40:45.142Z,18.49
2019-06-20T23:43:14.665Z,18.45
2019-06-20T23:45:44.156Z,18.38
2019-06-20T23:48:13.637Z,18.33
2019-06-20T23:50:43.286Z,18.27
2019-06-20T23:53:17.384Z,18.25
2019-06-20T23:55:47.788Z,18.22
2019-06-20T23:58:17.189Z,18.26
